createdAt,value
2022-11-09T00:01:29.795Z,15.80
2022-11-09T00:03:59.499Z,15.32
2022-11-09T00:06:28.595Z,13.35
2022-11-09T00:09:04.157Z,16.63
2022-11-09T00:11:35.394Z,11.77
2022-11-09T00:14:04.468Z,15.75
2022-11-09T00:16:32.787Z,17.95
2022-11-09T00:19:01.388Z,16.92
2022-11-09T00:21:30.502Z,17.50
2022-11-09T00:24:00.475Z,13.30
2022-11-09T00:26:28.842Z,15.73
2022-11-09T00:28:57.741Z,13.52
2022-11-09T00:31:26.679Z,14.25
2022-11-09T00:33:57.347Z,18.00
2022-11-09T00:36:29.090Z,13.20
2022-11-09T00:38:59.927Z,15.43
2022-11-09T00:41:29.863Z,17.73
2022-11-09T00:43:58.935Z,23.83
2022-11-09T00:46:27.652Z,15.90
2022-11-09T00:48:56.970Z,22.23
2022-11-09T00:51:25.541Z,15.23
2022-11-09T00:53:55.456Z,23.15
2022-11-09T00:56:24.520Z,14.82
2022-11-09T00:58:57.217Z,15.02
2022-11-09T01:01:25.982Z,22.55
2022-11-09T01:03:54.818Z,20.55
2022-11-09T01:06:25.438Z,16.10
2022-11-09T01:08:54.031Z,18.77
2022-11-09T01:11:23.944Z,18.85
2022-11-09T01:13:53.110Z,17.27
2022-11-09T01:16:24.473Z,21.52
2022-11-09T01:18:55.023Z,13.30
2022-11-09T01:21:23.797Z,16.33
2022-11-09T01:23:52.480Z,19.50
2022-11-09T01:26:20.812Z,20.85
2022-11-09T01:28:49.637Z,34.17
2022-11-09T01:31:20.645Z,16.52
2022-11-09T01:33:50.924Z,18.50
2022-11-09T01:36:21.245Z,21.30
2022-11-09T01:38:50.789Z,14.57
2022-11-09T01:41:22.207Z,20.58
2022-11-09T01:44:11.953Z,18.10
2022-11-09T01:46:45.025Z,14.38
2022-11-09T01:49:22.144Z,20.77
2022-11-09T01:51:54.413Z,22.00
2022-11-09T01:54:27.089Z,21.80
2022-11-09T01:56:58.919Z,19.75
2022-11-09T01:59:30.762Z,18.95
2022-11-09T02:02:00.564Z,20.88
2022-11-09T02:04:35.320Z,18.95
2022-11-09T02:07:04.269Z,23.08
2022-11-09T02:09:40.348Z,16.80
2022-11-09T02:12:09.427Z,18.83
2022-11-09T02:14:40.053Z,18.52
2022-11-09T02:17:09.408Z,23.70
2022-11-09T02:19:39.480Z,17.92
2022-11-09T02:22:09.672Z,14.95
2022-11-09T02:24:38.357Z,20.98
2022-11-09T02:27:08.009Z,21.85
2022-11-09T02:29:40.607Z,17.60
2022-11-09T02:32:13.231Z,15.50
2022-11-09T02:34:41.822Z,22.52
2022-11-09T02:37:12.102Z,18.35
2022-11-09T02:39:40.724Z,25.23
2022-11-09T02:42:11.538Z,18.30
2022-11-09T02:44:43.097Z,25.55
2022-11-09T02:47:11.648Z,23.13
2022-11-09T02:49:40.077Z,17.38
2022-11-09T02:52:08.852Z,18.20
2022-11-09T02:54:38.716Z,15.52
2022-11-09T02:57:07.258Z,22.58
2022-11-09T02:59:35.800Z,20.08
2022-11-09T03:02:04.419Z,19.95
2022-11-09T03:04:32.734Z,16.55
2022-11-09T03:07:01.449Z,18.80
2022-11-09T03:09:29.951Z,21.70
2022-11-09T03:12:20.105Z,15.55
2022-11-09T03:14:48.435Z,21.77
2022-11-09T03:17:17.678Z,20.08
2022-11-09T03:19:46.105Z,15.50
2022-11-09T03:22:14.687Z,19.67
2022-11-09T03:24:43.222Z,17.75
2022-11-09T03:27:13.401Z,16.50
2022-11-09T03:29:41.888Z,15.45
2022-11-09T03:32:11.020Z,21.65
2022-11-09T03:34:39.565Z,16.98
2022-11-09T03:37:08.391Z,17.42
2022-11-09T03:39:36.840Z,21.27
2022-11-09T03:42:05.629Z,15.73
2022-11-09T03:44:35.448Z,14.90
2022-11-09T03:47:04.154Z,17.63
2022-11-09T03:49:32.562Z,17.42
2022-11-09T03:52:01.106Z,13.32
2022-11-09T03:54:29.422Z,16.00
2022-11-09T03:56:57.967Z,20.75
2022-11-09T03:59:26.229Z,15.25
2022-11-09T04:01:56.297Z,16.48
2022-11-09T04:04:24.669Z,15.25
2022-11-09T04:06:53.346Z,19.92
2022-11-09T04:09:21.639Z,19.35
2022-11-09T04:11:50.154Z,18.20
2022-11-09T04:14:18.596Z,20.23
2022-11-09T04:16:47.139Z,21.00
2022-11-09T04:19:17.029Z,12.60
2022-11-09T04:21:45.672Z,17.83
2022-11-09T04:24:14.260Z,19.38
2022-11-09T04:26:43.084Z,18.40
2022-11-09T04:29:12.012Z,21.13
2022-11-09T04:31:40.876Z,20.75
2022-11-09T04:34:09.304Z,21.73
2022-11-09T04:36:39.825Z,22.42
2022-11-09T04:39:08.370Z,22.25
2022-11-09T04:41:37.490Z,17.52
2022-11-09T04:44:06.266Z,21.83
2022-11-09T04:46:35.082Z,18.52
2022-11-09T04:49:03.589Z,25.77
2022-11-09T04:51:32.361Z,15.65
2022-11-09T04:54:02.174Z,19.00
2022-11-09T04:56:30.852Z,23.52
2022-11-09T04:58:59.146Z,19.38
2022-11-09T05:01:27.931Z,16.95
2022-11-09T05:03:56.360Z,19.42
2022-11-09T05:06:34.061Z,20.60
2022-11-09T05:09:05.562Z,16.27
2022-11-09T05:11:35.153Z,18.35
2022-11-09T05:14:03.738Z,21.80
2022-11-09T05:16:32.935Z,16.80
2022-11-09T05:19:01.308Z,21.75
2022-11-09T05:21:29.985Z,19.40
2022-11-09T05:23:59.933Z,19.13
2022-11-09T05:26:32.556Z,17.38
2022-11-09T05:29:02.056Z,19.50
2022-11-09T05:31:31.327Z,18.42
2022-11-09T05:34:00.613Z,21.23
2022-11-09T05:36:30.506Z,18.33
2022-11-09T05:38:59.374Z,18.95
2022-11-09T05:41:27.935Z,15.52
2022-11-09T05:43:57.528Z,13.60
2022-11-09T05:46:27.049Z,13.85
2022-11-09T05:48:55.584Z,19.17
2022-11-09T05:51:24.474Z,18.33
2022-11-09T05:53:53.007Z,19.23
2022-11-09T05:56:22.027Z,18.30
2022-11-09T05:58:50.734Z,19.00
2022-11-09T06:01:20.867Z,22.55
2022-11-09T06:03:49.367Z,16.88
2022-11-09T06:06:18.626Z,13.43
2022-11-09T06:08:46.951Z,16.65
2022-11-09T06:11:21.802Z,18.05
2022-11-09T06:13:52.080Z,18.73
2022-11-09T06:16:22.601Z,17.90
2022-11-09T06:18:51.419Z,17.65
2022-11-09T06:21:20.328Z,18.77
2022-11-09T06:23:48.852Z,22.23
2022-11-09T06:26:17.653Z,18.17
2022-11-09T06:28:46.054Z,19.08
2022-11-09T06:31:16.727Z,20.52
2022-11-09T06:33:46.740Z,19.00
2022-11-09T06:36:15.598Z,15.35
2022-11-09T06:38:45.362Z,16.38
2022-11-09T06:41:15.074Z,23.20
2022-11-09T06:43:44.526Z,27.73
2022-11-09T06:46:17.569Z,22.75
2022-11-09T06:48:51.873Z,21.38
2022-11-09T06:51:23.150Z,27.33
2022-11-09T06:53:51.789Z,27.05
2022-11-09T06:56:20.517Z,24.35
2022-11-09T06:58:49.178Z,22.75
2022-11-09T07:01:20.285Z,18.42
2022-11-09T07:03:50.486Z,23.73
2022-11-09T07:06:19.720Z,20.80
2022-11-09T07:08:48.141Z,23.65
2022-11-09T07:11:19.575Z,22.52
2022-11-09T07:13:54.739Z,22.60
2022-11-09T07:16:25.970Z,26.92
2022-11-09T07:18:55.853Z,24.63
2022-11-09T07:21:24.763Z,19.48
2022-11-09T07:23:53.072Z,25.15
2022-11-09T07:26:21.651Z,19.90
2022-11-09T07:28:50.181Z,22.85
2022-11-09T07:31:18.763Z,17.42
2022-11-09T07:33:47.191Z,35.60
2022-11-09T07:36:21.407Z,26.08
2022-11-09T07:38:50.120Z,19.75
2022-11-09T07:41:18.868Z,18.85
2022-11-09T07:43:47.149Z,19.38
2022-11-09T07:46:16.104Z,25.65
2022-11-09T07:48:44.505Z,17.88
2022-11-09T07:51:13.392Z,18.20
2022-11-09T07:53:43.061Z,17.63
2022-11-09T07:56:11.713Z,20.88
2022-11-09T07:58:39.951Z,17.70
2022-11-09T08:01:09.623Z,21.02
2022-11-09T08:03:38.314Z,26.35
2022-11-09T08:06:07.253Z,24.90
2022-11-09T08:08:35.521Z,18.90
2022-11-09T08:11:05.890Z,15.90
2022-11-09T08:13:34.481Z,24.10
2022-11-09T08:16:03.879Z,17.50
2022-11-09T08:18:32.299Z,26.67
2022-11-09T08:21:03.958Z,20.83
2022-11-09T08:23:32.508Z,19.65
2022-11-09T08:26:06.764Z,20.70
2022-11-09T08:28:35.961Z,20.63
2022-11-09T08:31:09.167Z,25.13
2022-11-09T08:33:39.791Z,17.33
2022-11-09T08:36:13.534Z,20.42
2022-11-09T08:38:42.747Z,18.40
2022-11-09T08:41:14.078Z,17.00
2022-11-09T08:43:42.874Z,18.13
2022-11-09T08:46:11.466Z,15.10
2022-11-09T08:48:39.823Z,21.35
2022-11-09T08:51:08.472Z,22.60
2022-11-09T08:53:36.668Z,21.85
2022-11-09T08:56:08.040Z,20.00
2022-11-09T08:58:37.898Z,16.80
2022-11-09T09:01:12.192Z,26.15
2022-11-09T09:03:43.805Z,28.65
2022-11-09T09:06:12.538Z,22.50
2022-11-09T09:08:40.887Z,22.15
2022-11-09T09:11:09.430Z,27.38
2022-11-09T09:13:43.257Z,28.08
2022-11-09T09:16:13.569Z,21.02
2022-11-09T09:18:41.905Z,20.15
2022-11-09T09:21:11.570Z,18.88
2022-11-09T09:23:39.961Z,18.95
2022-11-09T09:26:08.830Z,21.13
2022-11-09T09:28:39.148Z,22.77
2022-11-09T09:31:08.242Z,21.13
2022-11-09T09:33:36.724Z,30.42
2022-11-09T09:36:06.086Z,38.92
2022-11-09T09:38:34.357Z,26.77
2022-11-09T09:41:05.126Z,23.58
2022-11-09T09:43:42.590Z,24.48
2022-11-09T09:46:18.956Z,28.38
2022-11-09T09:48:51.410Z,25.20
2022-11-09T09:51:26.233Z,25.23
2022-11-09T09:53:58.887Z,22.80
2022-11-09T09:56:32.103Z,24.42
2022-11-09T09:59:07.633Z,28.10
2022-11-09T10:01:40.205Z,24.45
2022-11-09T10:04:19.334Z,24.17
2022-11-09T10:07:01.587Z,22.58
2022-11-09T10:09:46.384Z,18.23
2022-11-09T10:12:23.982Z,27.23
2022-11-09T10:15:15.395Z,16.92
2022-11-09T10:18:00.676Z,26.20
2022-11-09T10:20:42.964Z,16.75
2022-11-09T10:23:30.184Z,17.25
2022-11-09T10:26:07.042Z,21.50
2022-11-09T10:29:09.656Z,15.77
2022-11-09T10:31:34.969Z,17.27
2022-11-09T10:34:20.197Z,15.18
2022-11-09T10:36:55.810Z,13.77
2022-11-09T10:39:27.670Z,21.52
2022-11-09T10:41:56.167Z,16.25
2022-11-09T10:44:25.004Z,18.85
2022-11-09T10:47:11.902Z,15.95
2022-11-09T10:49:42.409Z,17.60
2022-11-09T10:52:33.062Z,19.17
2022-11-09T10:55:17.761Z,14.23
2022-11-09T10:57:53.786Z,14.40
2022-11-09T11:00:23.013Z,17.75
2022-11-09T11:02:52.914Z,15.60
2022-11-09T11:05:27.212Z,16.98
2022-11-09T11:07:56.577Z,18.77
2022-11-09T11:10:25.304Z,19.75
2022-11-09T11:13:17.080Z,19.42
2022-11-09T11:15:45.664Z,14.65
2022-11-09T11:18:19.060Z,22.05
2022-11-09T11:20:49.193Z,15.27
2022-11-09T11:23:19.972Z,15.15
2022-11-09T11:26:10.596Z,27.08
2022-11-09T11:28:44.628Z,16.17
2022-11-09T11:31:16.162Z,14.95
2022-11-09T11:33:45.242Z,13.55
2022-11-09T11:36:22.059Z,16.05
2022-11-09T11:38:58.695Z,18.05
2022-11-09T11:41:51.902Z,12.15
2022-11-09T11:44:35.365Z,13.77
2022-11-09T11:47:11.368Z,13.50
2022-11-09T11:49:57.386Z,20.75
2022-11-09T11:52:31.840Z,15.85
2022-11-09T11:55:19.467Z,12.45
2022-11-09T11:57:59.543Z,9.50
2022-11-09T12:00:28.855Z,16.67
2022-11-09T12:03:28.858Z,16.83
2022-11-09T12:06:39.704Z,11.48
2022-11-09T12:09:26.466Z,14.32
2022-11-09T12:12:08.377Z,16.58
2022-11-09T12:14:46.937Z,13.80
2022-11-09T12:17:22.924Z,16.17
2022-11-09T12:20:20.026Z,14.43
2022-11-09T12:22:56.105Z,13.10
2022-11-09T12:25:31.276Z,11.95
2022-11-09T12:28:14.469Z,15.48
2022-11-09T12:30:56.049Z,15.35
2022-11-09T12:33:34.819Z,13.35
2022-11-09T12:36:10.637Z,17.13
2022-11-09T12:38:48.765Z,15.27
2022-11-09T12:41:22.906Z,12.77
2022-11-09T12:43:56.374Z,13.63
2022-11-09T12:46:32.267Z,11.88
2022-11-09T12:49:05.003Z,18.25
2022-11-09T12:51:34.296Z,13.98
2022-11-09T12:54:11.288Z,9.85
2022-11-09T12:56:51.139Z,18.77
2022-11-09T12:59:34.316Z,13.73
2022-11-09T13:02:03.957Z,17.60
2022-11-09T13:04:33.589Z,15.30
2022-11-09T13:07:31.108Z,19.25
2022-11-09T13:10:02.754Z,15.07
2022-11-09T13:12:42.817Z,16.48
2022-11-09T13:15:23.834Z,14.98
2022-11-09T13:17:59.709Z,16.42
2022-11-09T13:20:55.481Z,17.75
2022-11-09T13:24:00.108Z,13.43
2022-11-09T13:26:58.631Z,18.50
2022-11-09T13:29:29.732Z,14.00
2022-11-09T13:32:24.870Z,12.25
2022-11-09T13:34:54.824Z,17.42
2022-11-09T13:37:54.825Z,15.80
2022-11-09T13:40:44.765Z,14.88
2022-11-09T13:43:20.465Z,17.42
2022-11-09T13:45:52.605Z,19.95
2022-11-09T13:48:40.859Z,17.15
2022-11-09T13:51:12.144Z,12.63
2022-11-09T13:53:55.741Z,15.40
2022-11-09T13:56:29.439Z,16.65
2022-11-09T13:59:03.776Z,15.25
2022-11-09T14:01:38.381Z,15.00
2022-11-09T14:04:07.260Z,12.75
2022-11-09T14:06:35.666Z,16.05
2022-11-09T14:09:04.817Z,19.88
2022-11-09T14:11:48.345Z,14.48
2022-11-09T14:14:39.562Z,14.93
2022-11-09T14:17:18.369Z,14.32
2022-11-09T14:20:00.179Z,16.25
2022-11-09T14:22:32.644Z,15.63
2022-11-09T14:25:04.539Z,17.40
2022-11-09T14:27:32.880Z,20.45
2022-11-09T14:30:02.650Z,15.30
2022-11-09T14:32:35.830Z,20.90
2022-11-09T14:35:25.596Z,17.20
2022-11-09T14:37:56.021Z,19.13
2022-11-09T14:40:26.562Z,23.83
2022-11-09T14:42:59.695Z,14.40
2022-11-09T14:45:29.310Z,19.10
2022-11-09T14:48:00.782Z,16.60
2022-11-09T14:50:32.304Z,16.40
2022-11-09T14:53:02.104Z,14.55
2022-11-09T14:55:31.718Z,21.38
2022-11-09T14:58:00.401Z,17.13
2022-11-09T15:00:33.054Z,12.70
2022-11-09T15:03:23.536Z,16.65
2022-11-09T15:06:03.644Z,11.43
2022-11-09T15:08:32.607Z,13.82
2022-11-09T15:11:01.296Z,14.20
2022-11-09T15:13:32.851Z,15.45
2022-11-09T15:16:01.698Z,18.67
2022-11-09T15:18:34.566Z,17.85
2022-11-09T15:21:14.376Z,15.65
2022-11-09T15:23:44.492Z,20.05
2022-11-09T15:26:36.049Z,25.80
2022-11-09T15:29:19.879Z,26.48
2022-11-09T15:31:58.896Z,26.77
2022-11-09T15:34:33.537Z,23.10
2022-11-09T15:37:01.790Z,22.80
2022-11-09T15:39:30.418Z,22.52
2022-11-09T15:41:58.739Z,16.80
2022-11-09T15:44:26.993Z,19.20
2022-11-09T15:46:55.842Z,19.45
2022-11-09T15:49:26.757Z,16.05
2022-11-09T15:51:57.351Z,20.67
2022-11-09T15:54:25.765Z,18.08
2022-11-09T15:56:54.165Z,14.73
2022-11-09T15:59:24.948Z,16.50
2022-11-09T16:01:53.851Z,18.67
2022-11-09T16:04:22.615Z,17.70
2022-11-09T16:06:51.277Z,20.23
2022-11-09T16:09:20.892Z,15.57
2022-11-09T16:11:50.442Z,12.95
2022-11-09T16:14:21.637Z,18.23
2022-11-09T16:16:50.153Z,19.58
2022-11-09T16:19:18.476Z,16.95
2022-11-09T16:21:47.059Z,15.07
2022-11-09T16:24:17.461Z,21.83
2022-11-09T16:26:47.154Z,18.25
2022-11-09T16:29:15.672Z,15.45
2022-11-09T16:31:52.398Z,19.13
2022-11-09T16:34:21.722Z,17.98
2022-11-09T16:36:56.423Z,11.35
2022-11-09T16:39:27.114Z,16.08
2022-11-09T16:41:56.853Z,15.93
2022-11-09T16:44:25.984Z,14.63
2022-11-09T16:46:54.652Z,16.02
2022-11-09T16:49:22.990Z,21.48
2022-11-09T16:51:51.475Z,19.25
2022-11-09T16:54:19.795Z,22.38
2022-11-09T16:56:48.520Z,22.95
2022-11-09T16:59:18.613Z,21.60
2022-11-09T17:01:52.596Z,22.48
2022-11-09T17:04:21.330Z,21.30
2022-11-09T17:06:49.757Z,16.20
2022-11-09T17:09:18.590Z,20.25
2022-11-09T17:11:47.365Z,20.48
2022-11-09T17:14:15.642Z,25.92
2022-11-09T17:16:47.149Z,22.23
2022-11-09T17:19:15.675Z,17.73
2022-11-09T17:21:43.947Z,19.45
2022-11-09T17:24:12.395Z,18.92
2022-11-09T17:26:41.322Z,17.20
2022-11-09T17:29:10.006Z,25.92
2022-11-09T17:31:38.488Z,16.38
2022-11-09T17:34:08.396Z,17.30
2022-11-09T17:37:02.376Z,23.75
2022-11-09T17:39:25.534Z,21.58
2022-11-09T17:41:54.111Z,22.60
2022-11-09T17:44:22.884Z,20.02
2022-11-09T17:46:51.476Z,17.02
2022-11-09T17:49:21.099Z,19.33
2022-11-09T17:51:49.399Z,16.55
2022-11-09T17:54:17.875Z,18.83
2022-11-09T17:56:46.237Z,21.05
2022-11-09T17:59:14.473Z,21.13
2022-11-09T18:01:43.890Z,29.05
2022-11-09T18:04:12.698Z,19.83
2022-11-09T18:06:42.571Z,19.88
2022-11-09T18:09:39.755Z,20.33
2022-11-09T18:11:59.564Z,23.50
2022-11-09T18:14:28.159Z,22.52
2022-11-09T18:16:59.560Z,23.90
2022-11-09T18:19:28.128Z,25.35
2022-11-09T18:22:01.169Z,18.30
2022-11-09T18:24:31.858Z,24.38
2022-11-09T18:27:00.256Z,21.65
2022-11-09T18:29:28.579Z,24.55
2022-11-09T18:31:57.142Z,19.48
2022-11-09T18:34:25.335Z,27.65
2022-11-09T18:36:54.193Z,21.38
2022-11-09T18:39:26.263Z,26.67
2022-11-09T18:41:57.049Z,26.52
2022-11-09T18:44:25.799Z,20.73
2022-11-09T18:46:54.338Z,26.77
2022-11-09T18:49:22.710Z,28.65
2022-11-09T18:51:50.966Z,26.35
2022-11-09T18:54:20.116Z,23.80
2022-11-09T18:56:49.717Z,22.50
2022-11-09T18:59:18.332Z,32.92
2022-11-09T19:01:46.838Z,24.23
2022-11-09T19:04:16.710Z,30.88
2022-11-09T19:06:45.079Z,41.30
2022-11-09T19:09:35.289Z,30.35
2022-11-09T19:12:08.122Z,29.65
2022-11-09T19:14:40.848Z,35.72
2022-11-09T19:17:12.947Z,32.58
2022-11-09T19:19:42.271Z,24.55
2022-11-09T19:22:17.082Z,34.72
2022-11-09T19:24:46.073Z,28.10
2022-11-09T19:27:16.084Z,25.77
2022-11-09T19:29:44.565Z,31.00
2022-11-09T19:32:13.273Z,31.45
2022-11-09T19:34:42.817Z,30.55
2022-11-09T19:37:11.705Z,35.35
2022-11-09T19:39:43.409Z,28.45
2022-11-09T19:42:12.236Z,32.60
2022-11-09T19:44:41.796Z,22.05
2022-11-09T19:47:10.139Z,37.65
2022-11-09T19:49:38.694Z,27.52
2022-11-09T19:52:07.040Z,29.23
2022-11-09T19:54:35.341Z,34.35
2022-11-09T19:57:03.912Z,28.98
2022-11-09T19:59:33.214Z,27.83
2022-11-09T20:02:03.183Z,29.65
2022-11-09T20:04:33.144Z,22.90
2022-11-09T20:07:01.786Z,30.77
2022-11-09T20:09:31.919Z,29.58
2022-11-09T20:12:17.688Z,25.75
2022-11-09T20:14:46.482Z,32.30
2022-11-09T20:17:16.197Z,32.50
2022-11-09T20:19:44.589Z,23.00
2022-11-09T20:22:13.563Z,30.73
2022-11-09T20:24:42.070Z,24.33
2022-11-09T20:27:10.620Z,24.42
2022-11-09T20:29:38.945Z,27.52
2022-11-09T20:32:11.798Z,28.00
2022-11-09T20:34:42.441Z,29.38
2022-11-09T20:37:10.726Z,38.15
2022-11-09T20:39:40.674Z,32.97
2022-11-09T20:42:08.990Z,32.08
2022-11-09T20:44:37.533Z,27.27
2022-11-09T20:47:06.072Z,29.52
2022-11-09T20:49:34.549Z,23.25
2022-11-09T20:52:04.611Z,31.20
2022-11-09T20:54:32.929Z,28.25
2022-11-09T20:57:01.632Z,37.60
2022-11-09T20:59:29.936Z,29.17
2022-11-09T21:01:58.493Z,28.27
2022-11-09T21:04:26.954Z,33.90
2022-11-09T21:06:55.597Z,29.67
2022-11-09T21:09:25.420Z,33.63
2022-11-09T21:12:11.710Z,23.00
2022-11-09T21:14:40.257Z,28.90
2022-11-09T21:17:08.948Z,29.15
2022-11-09T21:19:37.273Z,26.08
2022-11-09T21:22:05.621Z,28.13
2022-11-09T21:24:53.146Z,28.85
2022-11-09T21:27:45.454Z,25.67
2022-11-09T21:30:17.098Z,39.17
2022-11-09T21:32:45.449Z,29.70
2022-11-09T21:35:13.934Z,32.92
2022-11-09T21:37:42.149Z,30.38
2022-11-09T21:40:12.744Z,34.22
2022-11-09T21:42:41.421Z,30.08
2022-11-09T21:45:10.310Z,22.42
2022-11-09T21:47:39.044Z,30.25
2022-11-09T21:50:12.315Z,33.42
2022-11-09T21:52:41.238Z,35.17
2022-11-09T21:55:11.144Z,32.50
2022-11-09T21:57:39.415Z,35.53
2022-11-09T22:00:09.340Z,26.83
2022-11-09T22:02:37.769Z,32.13
2022-11-09T22:05:07.488Z,28.60
2022-11-09T22:07:36.170Z,34.50
2022-11-09T22:10:11.959Z,29.98
2022-11-09T22:13:04.832Z,28.15
2022-11-09T22:15:50.822Z,31.80
2022-11-09T22:18:33.325Z,33.47
2022-11-09T22:21:01.703Z,27.13
2022-11-09T22:23:30.384Z,33.25
2022-11-09T22:26:02.197Z,32.65
2022-11-09T22:28:33.649Z,28.70
2022-11-09T22:31:02.196Z,27.27
2022-11-09T22:33:30.863Z,29.50
2022-11-09T22:36:00.937Z,30.15
2022-11-09T22:38:29.812Z,28.38
2022-11-09T22:41:01.444Z,30.55
2022-11-09T22:43:33.821Z,38.08
2022-11-09T22:46:04.798Z,25.38
2022-11-09T22:48:33.839Z,31.35
2022-11-09T22:51:02.301Z,27.70
2022-11-09T22:53:31.076Z,31.15
2022-11-09T22:56:02.167Z,30.98
2022-11-09T22:58:32.033Z,33.00
2022-11-09T23:01:08.999Z,29.63
2022-11-09T23:03:37.470Z,29.38
2022-11-09T23:06:08.458Z,36.95
2022-11-09T23:08:38.099Z,29.30
2022-11-09T23:11:08.290Z,32.67
2022-11-09T23:13:38.309Z,34.67
2022-11-09T23:16:08.952Z,36.72
2022-11-09T23:18:55.690Z,33.00
2022-11-09T23:21:28.058Z,26.48
2022-11-09T23:23:58.079Z,37.03
2022-11-09T23:26:26.328Z,35.17
2022-11-09T23:28:56.368Z,28.42
2022-11-09T23:31:25.951Z,30.33
2022-11-09T23:33:55.438Z,24.90
2022-11-09T23:36:24.932Z,27.77
2022-11-09T23:38:53.666Z,31.15
2022-11-09T23:41:22.094Z,31.35
2022-11-09T23:43:50.421Z,27.75
2022-11-09T23:46:20.305Z,33.45
2022-11-09T23:48:48.518Z,43.53
2022-11-09T23:51:18.897Z,28.63
2022-11-09T23:53:47.667Z,30.45
2022-11-09T23:56:15.836Z,27.92
2022-11-09T23:58:47.871Z,22.30
